Time;durP1;ratioP1;P1;durP2;ratioP2;P2;SDS_P1;SDS_P2;PMS_P1;PMS_P2;Temp;Humidity;BMP_temperature;BMP_pressure;BME280_temperature;BME280_humidity;BME280_pressure;Samples;Min_cycle;Max_cycle;Signal;HPM_P1;HPM_P2
2023/06/14 00:01:35;;;;;;;19.30;13.20;;;;;;;15.32;100.00;101039.28;6188466;23;20012;-91
2023/06/14 00:04:01;;;;;;;21.45;13.32;;;;;;;15.36;100.00;101032.44;6249921;23;20364;-89
2023/06/14 00:06:31;;;;;;;19.75;12.90;;;;;;;15.33;100.00;101024.72;6198465;23;20034;-89
2023/06/14 00:08:57;;;;;;;17.67;11.70;;;;;;;15.42;100.00;101037.03;6248778;23;20018;-92
2023/06/14 00:11:23;;;;;;;21.27;13.48;;;;;;;15.45;100.00;101030.38;6248039;23;20004;-87
2023/06/14 00:13:48;;;;;;;17.40;11.10;;;;;;;15.42;100.00;101030.78;6197509;23;20008;-91
2023/06/14 00:16:16;;;;;;;23.83;15.15;;;;;;;15.37;100.00;101032.25;6221646;23;20014;-89
2023/06/14 00:18:43;;;;;;;21.00;13.18;;;;;;;15.33;100.00;101032.84;6247870;23;20008;-91
2023/06/14 00:21:09;;;;;;;20.30;11.40;;;;;;;15.39;100.00;101037.44;6223652;23;20455;-92
2023/06/14 00:23:35;;;;;;;18.15;10.85;;;;;;;15.36;100.00;101040.56;6198833;23;20004;-92
2023/06/14 00:26:01;;;;;;;25.42;14.65;;;;;;;15.33;100.00;101039.09;6222702;23;20363;-91
2023/06/14 00:28:26;;;;;;;21.35;13.02;;;;;;;15.31;100.00;101038.44;6247917;23;19996;-92
2023/06/14 00:30:52;;;;;;;20.83;13.40;;;;;;;15.28;100.00;101038.84;6221464;23;20429;-91
2023/06/14 00:33:17;;;;;;;14.60;9.60;;;;;;;15.26;100.00;101042.78;6196520;23;20057;-88
2023/06/14 00:35:43;;;;;;;18.58;12.23;;;;;;;15.22;100.00;101028.81;6248867;22;20046;-88
2023/06/14 00:38:09;;;;;;;21.98;13.80;;;;;;;15.09;100.00;101023.34;6247710;23;20417;-88
2023/06/14 00:40:35;;;;;;;20.60;12.40;;;;;;;15.03;100.00;101029.53;6198364;23;20050;-88
2023/06/14 00:43:01;;;;;;;20.55;11.73;;;;;;;14.95;100.00;101034.09;6223176;23;20429;-89
2023/06/14 00:45:26;;;;;;;17.33;10.32;;;;;;;15.00;100.00;101038.03;6222105;23;20003;-91
2023/06/14 00:47:55;;;;;;;21.52;12.52;;;;;;;14.97;100.00;101046.56;6247715;23;20091;-90
2023/06/14 00:50:21;;;;;;;20.67;12.45;;;;;;;14.97;100.00;101039.28;6247726;23;20008;-92
2023/06/14 00:52:47;;;;;;;19.13;12.20;;;;;;;14.98;100.00;101046.38;6222416;23;20004;-92
2023/06/14 00:55:13;;;;;;;23.15;13.20;;;;;;;14.93;100.00;101036.13;6197029;23;20341;-87
2023/06/14 00:57:39;;;;;;;21.38;12.93;;;;;;;14.89;100.00;101034.84;6221844;23;20036;-86
2023/06/14 01:00:08;;;;;;;21.20;13.85;;;;;;;14.94;100.00;101047.81;6247766;23;20007;-92
2023/06/14 01:02:53;;;;;;;13.13;8.65;;;;;;;14.93;100.00;101046.16;6227262;23;20452;-88
2023/06/14 01:05:19;;;;;;;17.63;10.27;;;;;;;14.88;100.00;101044.03;6172084;23;20001;-88
2023/06/14 01:08:10;;;;;;;21.83;14.05;;;;;;;14.86;100.00;101040.66;6173168;23;20007;-91
2023/06/14 01:10:39;;;;;;;16.38;9.77;;;;;;;14.82;100.00;101038.53;6223175;23;20017;-92
2023/06/14 01:13:20;;;;;;;20.80;12.05;;;;;;;14.79;100.00;101042.50;6222962;23;20049;-90
2023/06/14 01:15:47;;;;;;;18.33;11.38;;;;;;;14.69;100.00;101039.31;6174067;23;20004;-89
2023/06/14 01:18:18;;;;;;;19.58;12.57;;;;;;;14.62;100.00;101051.94;6176265;23;20014;-90
2023/06/14 01:20:49;;;;;;;20.65;13.88;;;;;;;14.50;100.00;101047.03;6224856;23;20004;-90
2023/06/14 01:23:24;;;;;;;22.33;13.55;;;;;;;14.42;100.00;101041.75;6225192;23;20066;-89
2023/06/14 01:25:53;;;;;;;22.02;14.02;;;;;;;14.27;100.00;101036.41;6225690;23;20001;-92
2023/06/14 01:28:20;;;;;;;21.70;13.50;;;;;;;14.28;100.00;101039.94;6200233;23;20004;-87
2023/06/14 01:30:53;;;;;;;20.42;12.73;;;;;;;14.19;100.00;101031.13;6256305;23;20015;-87
2023/06/14 01:33:21;;;;;;;18.98;12.13;;;;;;;14.22;100.00;101032.59;6190571;23;20056;-87
2023/06/14 01:35:49;;;;;;;19.30;12.63;;;;;;;14.28;100.00;101031.81;6207177;23;20436;-93
2023/06/14 01:38:17;;;;;;;24.50;13.65;;;;;;;14.34;100.00;101025.63;6197961;23;20000;-92
2023/06/14 01:40:44;;;;;;;17.50;10.93;;;;;;;14.38;100.00;101021.50;6198585;23;20004;-93
2023/06/14 01:43:10;;;;;;;22.73;14.20;;;;;;;14.45;100.00;101035.13;6150076;23;20008;-90
2023/06/14 01:45:36;;;;;;;12.60;8.18;;;;;;;14.42;100.00;101032.78;6221546;23;20004;-88
2023/06/14 01:48:02;;;;;;;21.63;14.07;;;;;;;14.39;100.00;101042.09;6172656;23;20038;-92
2023/06/14 01:50:30;;;;;;;22.70;13.38;;;;;;;14.37;100.00;101029.81;6172769;23;20004;-88
2023/06/14 01:52:55;;;;;;;23.30;13.40;;;;;;;14.34;100.00;101032.91;6171336;23;20490;-92
2023/06/14 01:55:21;;;;;;;24.70;14.25;;;;;;;14.37;100.00;101030.66;6169981;23;20012;-91
2023/06/14 01:57:48;;;;;;;26.35;14.82;;;;;;;14.42;100.00;101030.94;6196799;23;20004;-89
2023/06/14 02:00:15;;;;;;;20.48;12.95;;;;;;;14.23;100.00;101012.63;6171838;23;20417;-89
2023/06/14 02:02:41;;;;;;;23.30;14.00;;;;;;;13.98;100.00;101004.91;6198521;23;20421;-91
2023/06/14 02:05:07;;;;;;;21.55;12.73;;;;;;;13.83;100.00;101020.31;6173289;23;20004;-94
2023/06/14 02:07:33;;;;;;;20.08;12.90;;;;;;;13.69;100.00;101010.41;6222801;23;20008;-88
2023/06/14 02:10:01;;;;;;;22.40;13.48;;;;;;;13.69;100.00;101022.03;6197181;23;20065;-93
2023/06/14 02:12:27;;;;;;;18.48;11.85;;;;;;;13.59;100.00;101014.22;6221852;23;20421;-90
2023/06/14 02:14:53;;;;;;;17.15;11.73;;;;;;;13.49;100.00;101019.09;6222636;23;20003;-93
2023/06/14 02:17:20;;;;;;;21.83;12.65;;;;;;;13.35;100.00;101007.28;6196352;23;20424;-88
2023/06/14 02:19:45;;;;;;;17.92;11.45;;;;;;;13.33;100.00;101011.19;6221625;23;20023;-90
2023/06/14 02:22:11;;;;;;;19.65;11.45;;;;;;;13.32;100.00;101015.75;6250525;23;20051;-89
2023/06/14 02:24:37;;;;;;;17.40;10.68;;;;;;;13.31;100.00;101018.63;6198100;23;20011;-92
2023/06/14 02:27:03;;;;;;;18.30;11.38;;;;;;;13.31;100.00;101016.81;6173386;23;20007;-88
2023/06/14 02:29:29;;;;;;;19.05;11.77;;;;;;;13.26;100.00;101007.53;6198100;23;20012;-92
2023/06/14 02:31:55;;;;;;;20.30;12.05;;;;;;;13.26;100.00;101015.63;6222974;23;20433;-91
2023/06/14 02:34:21;;;;;;;18.35;11.35;;;;;;;13.16;100.00;101011.38;6173550;23;20030;-89
2023/06/14 02:36:47;;;;;;;17.70;10.90;;;;;;;13.08;100.00;101008.75;6197825;23;20103;-89
2023/06/14 02:39:14;;;;;;;22.42;12.52;;;;;;;13.01;100.00;101007.81;6197659;23;20031;-89
2023/06/14 02:41:39;;;;;;;22.73;13.02;;;;;;;13.06;100.00;101012.66;6223168;23;20000;-84
2023/06/14 02:44:06;;;;;;;23.38;12.13;;;;;;;13.11;100.00;101012.94;6173021;23;19996;-90
2023/06/14 02:46:32;;;;;;;22.67;12.77;;;;;;;13.18;100.00;101020.13;6196932;23;20000;-93
2023/06/14 02:48:57;;;;;;;23.45;13.60;;;;;;;13.29;100.00;101009.91;6197310;23;20050;-92
2023/06/14 02:51:23;;;;;;;23.75;12.98;;;;;;;13.37;100.00;101002.53;6222403;23;20042;-87
2023/06/14 02:53:48;;;;;;;17.95;11.05;;;;;;;13.58;100.00;101004.47;6197279;23;20425;-88
2023/06/14 02:56:17;;;;;;;25.67;13.93;;;;;;;13.85;100.00;101010.16;6196493;23;20008;-92
2023/06/14 02:58:43;;;;;;;20.73;12.00;;;;;;;13.96;100.00;101001.53;6197114;23;20083;-85
2023/06/14 03:01:34;;;;;;;31.67;16.25;;;;;;;14.05;100.00;101004.97;6181836;23;20445;-88
2023/06/14 03:04:01;;;;;;;22.92;13.77;;;;;;;14.05;100.00;101000.41;6247179;23;20039;-91
2023/06/14 03:06:30;;;;;;;27.27;15.38;;;;;;;14.15;100.00;101001.94;6222254;23;20054;-91
2023/06/14 03:09:00;;;;;;;25.02;13.70;;;;;;;14.14;100.00;101006.50;6247114;23;20008;-91
2023/06/14 03:11:27;;;;;;;26.33;15.13;;;;;;;14.10;100.00;100997.09;6221516;23;20090;-88
2023/06/14 03:13:53;;;;;;;18.33;11.30;;;;;;;14.00;100.00;100994.75;6247120;23;20020;-90
2023/06/14 03:16:19;;;;;;;23.25;13.70;;;;;;;13.98;100.00;100995.97;6221493;23;20107;-92
2023/06/14 03:18:45;;;;;;;22.55;13.02;;;;;;;13.85;100.00;100996.66;6222341;23;20092;-92
2023/06/14 03:21:11;;;;;;;21.60;12.73;;;;;;;13.75;100.00;100994.25;6247705;23;20020;-89
2023/06/14 03:23:37;;;;;;;24.23;14.75;;;;;;;13.53;100.00;100989.84;6247098;23;20382;-84
2023/06/14 03:26:03;;;;;;;23.73;13.20;;;;;;;13.35;100.00;100991.06;6247398;23;20027;-88
2023/06/14 03:28:28;;;;;;;23.42;13.27;;;;;;;13.18;100.00;100986.88;6249179;23;20000;-89
2023/06/14 03:30:54;;;;;;;24.55;12.35;;;;;;;13.05;100.00;100984.00;6197061;23;20004;-91
2023/06/14 03:33:20;;;;;;;22.63;11.75;;;;;;;12.98;100.00;100994.69;6197823;23;20008;-90
2023/06/14 03:35:46;;;;;;;19.58;12.52;;;;;;;12.89;100.00;100999.34;6196718;23;20012;-91
2023/06/14 03:38:12;;;;;;;20.40;12.73;;;;;;;12.84;100.00;100995.53;6172506;23;20039;-92
2023/06/14 03:40:38;;;;;;;19.48;11.57;;;;;;;12.82;100.00;100986.78;6197309;23;20337;-89
2023/06/14 03:43:03;;;;;;;19.77;12.05;;;;;;;12.90;100.00;100995.63;6222099;23;20007;-86
2023/06/14 03:45:29;;;;;;;23.10;10.52;;;;;;;12.82;100.00;100994.88;6223435;23;20012;-91
2023/06/14 03:47:55;;;;;;;24.67;11.43;;;;;;;12.74;100.00;100990.41;6222178;23;20297;-91
2023/06/14 03:50:20;;;;;;;20.65;10.02;;;;;;;12.64;100.00;100996.06;6196913;23;20000;-90
2023/06/14 03:52:48;;;;;;;24.05;10.75;;;;;;;12.45;100.00;100962.34;6198339;23;20087;-88
2023/06/14 03:55:15;;;;;;;21.00;10.57;;;;;;;12.65;100.00;100992.34;6209265;23;20046;-89
2023/06/14 03:57:42;;;;;;;21.27;12.23;;;;;;;12.71;100.00;100991.63;6265963;23;20000;-89
2023/06/14 04:00:12;;;;;;;21.13;11.52;;;;;;;12.80;100.00;100988.81;6224940;23;20011;-85
2023/06/14 04:02:38;;;;;;;11.15;5.68;;;;;;;13.03;100.00;101000.38;6221663;23;20012;-92
2023/06/14 04:05:08;;;;;;;23.58;12.60;;;;;;;13.36;100.00;100997.31;6196446;23;20004;-91
2023/06/14 04:07:39;;;;;;;8.75;6.05;;;;;;;13.55;100.00;100995.91;6221542;23;20007;-91
2023/06/14 04:10:06;;;;;;;15.88;9.32;;;;;;;13.73;100.00;101000.88;6173271;23;20014;-87
2023/06/14 04:12:34;;;;;;;17.52;11.05;;;;;;;13.88;100.00;101003.53;6146195;23;20425;-90
2023/06/14 04:15:00;;;;;;;19.13;13.02;;;;;;;13.99;100.00;101001.16;6195316;23;20008;-90
2023/06/14 04:17:27;;;;;;;20.98;10.63;;;;;;;14.08;100.00;101002.72;6220702;23;20012;-92
2023/06/14 04:19:52;;;;;;;23.05;12.73;;;;;;;14.17;100.00;101006.13;6171526;23;20107;-89
2023/06/14 04:22:18;;;;;;;15.57;8.90;;;;;;;14.27;100.00;101009.34;6197781;23;20091;-86
2023/06/14 04:24:44;;;;;;;23.73;12.98;;;;;;;14.36;100.00;101011.91;6195231;23;20004;-89
2023/06/14 04:27:10;;;;;;;25.98;14.27;;;;;;;14.41;100.00;101006.75;6195492;23;20027;-89
2023/06/14 04:29:36;;;;;;;21.77;12.48;;;;;;;14.44;100.00;101015.31;6170477;23;20008;-87
2023/06/14 04:32:01;;;;;;;30.77;14.18;;;;;;;14.49;100.00;101018.28;6246890;23;20008;-88
2023/06/14 04:34:33;;;;;;;35.63;14.82;;;;;;;14.55;100.00;101030.22;6195265;23;20091;-91
2023/06/14 04:37:01;;;;;;;29.63;15.48;;;;;;;14.59;100.00;101023.38;6221850;23;20004;-85
2023/06/14 04:39:27;;;;;;;38.78;15.50;;;;;;;14.65;100.00;101027.19;6219757;23;20007;-86
2023/06/14 04:41:56;;;;;;;32.47;15.82;;;;;;;14.71;100.00;101026.38;6220241;23;20008;-89
2023/06/14 04:44:24;;;;;;;33.72;14.18;;;;;;;14.76;100.00;101021.22;6195360;23;20012;-88
2023/06/14 04:46:50;;;;;;;37.28;15.35;;;;;;;14.75;100.00;101016.84;6170857;23;20047;-89
2023/06/14 04:49:16;;;;;;;26.38;13.25;;;;;;;14.81;100.00;101021.47;6170248;23;20008;-82
2023/06/14 04:51:42;;;;;;;27.33;12.70;;;;;;;14.88;100.00;101024.22;6170067;23;20008;-88
2023/06/14 04:54:13;;;;;;;40.25;15.85;;;;;;;14.95;100.00;101025.09;6170023;23;20306;-89
2023/06/14 04:56:39;;;;;;;35.00;15.32;;;;;;;14.98;100.00;101019.31;6147494;23;20012;-88
2023/06/14 04:59:05;;;;;;;35.72;16.45;;;;;;;14.99;100.00;101017.44;6195138;23;20046;-88
2023/06/14 05:01:34;;;;;;;35.17;15.10;;;;;;;15.00;100.00;101021.81;6235216;23;20069;-87
2023/06/14 05:03:59;;;;;;;37.75;15.98;;;;;;;15.02;100.00;101027.88;6245261;23;20004;-88
2023/06/14 05:06:28;;;;;;;42.42;14.77;;;;;;;15.08;100.00;101033.34;6219813;23;20444;-90
2023/06/14 05:08:54;;;;;;;41.88;16.80;;;;;;;15.15;100.00;101031.47;6244716;23;20001;-87
2023/06/14 05:11:20;;;;;;;27.00;14.63;;;;;;;15.23;100.00;101027.78;6246070;22;20004;-86
2023/06/14 05:13:46;;;;;;;46.58;15.55;;;;;;;15.23;100.00;101037.78;6245119;23;20482;-85
2023/06/14 05:16:12;;;;;;;34.30;15.15;;;;;;;15.21;100.00;101032.56;6219838;23;20020;-85
2023/06/14 05:18:40;;;;;;;28.35;15.02;;;;;;;15.24;100.00;101043.00;6245127;23;20004;-87
2023/06/14 05:21:08;;;;;;;22.85;13.25;;;;;;;15.25;100.00;101050.09;6220153;23;20052;-88
2023/06/14 05:23:34;;;;;;;26.58;13.45;;;;;;;15.13;100.00;101030.84;6170443;23;20012;-88
2023/06/14 05:26:02;;;;;;;26.83;14.45;;;;;;;15.20;100.00;101021.94;6219845;23;20015;-85
2023/06/14 05:28:28;;;;;;;25.95;13.45;;;;;;;15.30;100.00;101036.78;6244821;23;20062;-88
2023/06/14 05:30:54;;;;;;;26.13;14.25;;;;;;;15.45;100.00;101049.34;6219757;23;20008;-86
2023/06/14 05:33:19;;;;;;;18.90;11.50;;;;;;;15.50;100.00;101047.72;6219418;23;20424;-86
2023/06/14 05:35:45;;;;;;;20.85;13.02;;;;;;;15.44;100.00;101032.25;6194890;23;20019;-86
2023/06/14 05:38:11;;;;;;;11.48;8.25;;;;;;;15.53;100.00;101055.47;6246454;22;20000;-86
2023/06/14 05:40:36;;;;;;;21.58;13.50;;;;;;;15.55;100.00;101044.41;6219421;23;20333;-86
2023/06/14 05:43:02;;;;;;;20.95;12.82;;;;;;;15.61;100.00;101032.75;6194200;23;20011;-87
2023/06/14 05:45:28;;;;;;;20.92;13.05;;;;;;;15.75;100.00;101045.38;6246389;22;20028;-88
2023/06/14 05:47:54;;;;;;;24.02;12.95;;;;;;;15.99;100.00;101052.13;6219617;23;20012;-87
2023/06/14 05:50:20;;;;;;;21.67;12.45;;;;;;;16.22;100.00;101050.91;6219583;23;20004;-87
2023/06/14 05:52:46;;;;;;;19.60;12.65;;;;;;;16.43;100.00;101034.47;6219641;23;20000;-84
2023/06/14 05:55:12;;;;;;;20.38;12.13;;;;;;;16.48;100.00;101048.25;6195873;23;20015;-87
2023/06/14 05:57:48;;;;;;;18.40;11.45;;;;;;;16.65;100.00;101043.22;6196432;23;20432;-87
2023/06/14 06:00:15;;;;;;;18.25;11.88;;;;;;;17.04;100.00;101055.16;6196826;23;20054;-87
2023/06/14 06:02:43;;;;;;;18.85;12.20;;;;;;;17.38;100.00;101058.59;6221459;23;20008;-89
2023/06/14 06:05:09;;;;;;;15.57;9.85;;;;;;;17.60;100.00;101053.75;6171979;23;20008;-90
2023/06/14 06:07:36;;;;;;;15.70;10.85;;;;;;;18.02;100.00;101052.31;6221355;23;20015;-89
2023/06/14 06:10:03;;;;;;;15.65;11.40;;;;;;;18.43;100.00;101051.00;6196681;23;20422;-86
2023/06/14 06:12:28;;;;;;;14.40;10.23;;;;;;;18.92;100.00;101064.03;6221954;23;20079;-90
2023/06/14 06:14:55;;;;;;;14.77;11.02;;;;;;;19.12;100.00;101064.69;6221970;23;20147;-84
2023/06/14 06:17:20;;;;;;;12.02;9.52;;;;;;;19.20;100.00;101052.66;6233020;23;20020;-86
2023/06/14 06:19:46;;;;;;;13.18;10.77;;;;;;;19.30;100.00;101062.00;6234799;23;20004;-91
2023/06/14 06:22:12;;;;;;;12.20;9.57;;;;;;;19.40;100.00;101058.75;6197130;23;20417;-90
2023/06/14 06:24:37;;;;;;;13.55;9.70;;;;;;;19.53;100.00;101076.84;6221585;23;20026;-90
2023/06/14 06:27:03;;;;;;;10.25;8.30;;;;;;;20.10;100.00;101062.94;6221571;23;20016;-88
2023/06/14 06:29:29;;;;;;;8.38;7.43;;;;;;;20.18;100.00;101068.88;6171586;23;20008;-87
2023/06/14 06:31:56;;;;;;;11.50;9.07;;;;;;;19.48;100.00;101060.34;6196610;23;20368;-92
2023/06/14 06:34:22;;;;;;;10.98;8.73;;;;;;;19.38;100.00;101068.22;6196475;23;20432;-91
2023/06/14 06:36:48;;;;;;;10.43;8.63;;;;;;;19.77;100.00;101081.41;6172311;23;20060;-88
2023/06/14 06:39:15;;;;;;;11.32;8.63;;;;;;;20.15;100.00;101066.63;6248253;23;20000;-90
2023/06/14 06:41:40;;;;;;;9.85;7.85;;;;;;;20.05;100.00;101074.53;6196695;23;20031;-90
2023/06/14 06:44:07;;;;;;;11.48;9.43;;;;;;;20.24;100.00;101069.84;6196404;23;20027;-87
2023/06/14 06:46:33;;;;;;;10.63;8.10;;;;;;;20.51;100.00;101086.69;6171456;23;20000;-86
2023/06/14 06:48:59;;;;;;;11.38;8.65;;;;;;;20.72;100.00;101081.75;6221958;23;20004;-91
2023/06/14 06:51:25;;;;;;;13.90;9.88;;;;;;;20.75;100.00;101084.03;6221598;23;20001;-89
2023/06/14 06:53:56;;;;;;;11.57;9.95;;;;;;;21.08;100.00;101089.75;6172974;23;20072;-91
2023/06/14 06:56:24;;;;;;;12.32;9.20;;;;;;;21.54;100.00;101090.00;6221598;23;20042;-89
2023/06/14 06:58:50;;;;;;;10.93;9.35;;;;;;;21.47;100.00;101094.78;6196569;23;20460;-88
2023/06/14 07:01:16;;;;;;;15.45;9.77;;;;;;;21.89;100.00;101092.66;6207725;23;20043;-90
2023/06/14 07:03:42;;;;;;;12.93;9.77;;;;;;;22.19;100.00;101097.09;6249540;23;20055;-91
2023/06/14 07:06:08;;;;;;;11.32;9.68;;;;;;;22.44;100.00;101085.78;6196529;23;20008;-88
2023/06/14 07:08:34;;;;;;;10.32;9.07;;;;;;;22.66;100.00;101099.59;6246386;23;20105;-92
2023/06/14 07:11:00;;;;;;;12.05;9.65;;;;;;;22.36;100.00;101105.34;6197092;23;20011;-88
2023/06/14 07:13:27;;;;;;;12.05;9.90;;;;;;;22.24;100.00;101099.94;6222346;23;20020;-92
2023/06/14 07:15:55;;;;;;;11.65;9.43;;;;;;;22.34;100.00;101097.38;6226636;23;20012;-91
2023/06/14 07:18:22;;;;;;;12.50;10.90;;;;;;;22.77;100.00;101106.06;6246199;23;20392;-91
2023/06/14 07:20:47;;;;;;;11.52;9.98;;;;;;;23.74;100.00;101107.56;6247102;23;20032;-90
2023/06/14 07:23:13;;;;;;;12.98;10.02;;;;;;;24.74;100.00;101113.63;6248542;23;20028;-92
2023/06/14 07:25:41;;;;;;;12.45;10.07;;;;;;;24.45;100.00;101101.22;6247364;23;19996;-91
2023/06/14 07:28:07;;;;;;;11.50;10.02;;;;;;;24.31;100.00;101111.78;6247243;23;20009;-87
2023/06/14 07:30:33;;;;;;;12.60;10.52;;;;;;;24.50;100.00;101110.34;6246833;23;20004;-91
2023/06/14 07:32:59;;;;;;;13.30;10.35;;;;;;;23.35;100.00;101114.97;6221621;23;20007;-93
2023/06/14 07:35:25;;;;;;;12.95;11.43;;;;;;;22.70;100.00;101117.19;6247033;23;19996;-92
2023/06/14 07:37:51;;;;;;;15.13;12.02;;;;;;;22.75;100.00;101128.25;6223188;23;20011;-88
2023/06/14 07:40:16;;;;;;;16.45;11.77;;;;;;;23.79;100.00;101128.75;6195781;23;19999;-83
2023/06/14 07:42:42;;;;;;;15.02;11.30;;;;;;;24.70;100.00;101120.72;6246487;22;20030;-84
2023/06/14 07:45:08;;;;;;;13.10;11.38;;;;;;;24.24;100.00;101130.38;6245194;23;20009;-83
2023/06/14 07:47:34;;;;;;;15.52;11.98;;;;;;;24.76;100.00;101133.41;6195350;23;20016;-85
2023/06/14 07:50:00;;;;;;;12.95;10.68;;;;;;;24.75;100.00;101130.94;6220552;23;20035;-83
2023/06/14 07:52:25;;;;;;;12.82;11.23;;;;;;;25.37;100.00;101127.56;6245372;23;20006;-84
2023/06/14 07:54:51;;;;;;;15.30;12.00;;;;;;;25.45;100.00;101143.59;6245234;23;20428;-83
2023/06/14 07:57:19;;;;;;;14.60;10.93;;;;;;;25.28;100.00;101137.44;6220410;23;20035;-83
2023/06/14 07:59:46;;;;;;;13.27;11.77;;;;;;;24.31;100.00;101123.59;6220888;23;20004;-83
2023/06/14 08:02:11;;;;;;;14.20;11.85;;;;;;;25.23;100.00;101140.16;6220427;23;20038;-82
2023/06/14 08:04:37;;;;;;;14.65;12.50;;;;;;;26.95;96.47;101140.25;6245265;23;20083;-83
2023/06/14 08:07:04;;;;;;;14.63;12.15;;;;;;;27.18;91.18;101136.94;6246647;22;20007;-84
2023/06/14 08:09:30;;;;;;;14.50;11.93;;;;;;;27.39;89.99;101136.91;6195122;23;20421;-84
2023/06/14 08:11:56;;;;;;;13.18;9.80;;;;;;;27.65;87.48;101140.41;6220260;23;20020;-84
2023/06/14 08:14:22;;;;;;;14.18;11.80;;;;;;;28.38;81.21;101137.06;6245567;23;20004;-85
2023/06/14 08:16:48;;;;;;;14.57;12.55;;;;;;;28.65;82.29;101133.03;6245183;23;20050;-84
2023/06/14 08:19:16;;;;;;;14.48;12.10;;;;;;;29.55;79.21;101142.75;6220126;23;20074;-84
2023/06/14 08:21:43;;;;;;;14.48;12.70;;;;;;;29.80;74.12;101134.19;6245435;23;20008;-84
2023/06/14 08:24:12;;;;;;;14.63;13.13;;;;;;;30.21;73.30;101139.19;6219973;23;20004;-84
2023/06/14 08:26:39;;;;;;;17.05;13.95;;;;;;;30.61;73.19;101144.47;6219366;23;20074;-83
2023/06/14 08:29:07;;;;;;;14.45;12.70;;;;;;;31.72;69.18;101135.28;6245871;23;20000;-85
2023/06/14 08:31:34;;;;;;;13.70;11.73;;;;;;;32.42;64.28;101145.19;6198598;23;20091;-83
2023/06/14 08:33:59;;;;;;;16.05;13.75;;;;;;;31.47;65.47;101141.38;6220551;23;20378;-84
2023/06/14 08:36:25;;;;;;;13.60;11.68;;;;;;;30.75;66.03;101147.28;6195178;23;20083;-83
2023/06/14 08:38:50;;;;;;;16.60;13.30;;;;;;;31.00;65.50;101144.13;6247062;23;20079;-83
2023/06/14 08:41:24;;;;;;;14.00;12.15;;;;;;;31.57;61.00;101129.19;6194828;23;20026;-83
2023/06/14 08:43:51;;;;;;;10.82;9.25;;;;;;;31.96;58.02;101137.88;6219929;23;20016;-83
2023/06/14 08:46:22;;;;;;;15.95;13.77;;;;;;;31.89;58.81;101140.22;6195206;23;20012;-84
2023/06/14 08:48:49;;;;;;;16.25;13.90;;;;;;;32.10;57.08;101142.56;6245449;23;20008;-83
2023/06/14 08:51:26;;;;;;;16.55;13.23;;;;;;;32.21;53.07;101138.47;6221579;23;20004;-83
2023/06/14 08:53:57;;;;;;;14.43;12.68;;;;;;;32.52;52.64;101138.56;6245264;23;20004;-83
2023/06/14 08:56:30;;;;;;;13.32;11.85;;;;;;;33.41;49.04;101152.78;6220160;23;20012;-83
2023/06/14 08:58:57;;;;;;;14.20;11.50;;;;;;;33.85;46.83;101140.69;6195531;23;20008;-84
2023/06/14 09:01:23;;;;;;;13.57;11.45;;;;;;;33.73;44.33;101154.41;6194470;23;20015;-83
2023/06/14 09:03:50;;;;;;;10.57;9.57;;;;;;;33.71;43.49;101140.81;6219708;23;20008;-83
2023/06/14 09:06:16;;;;;;;11.75;10.55;;;;;;;34.23;40.28;101153.25;6194670;23;20008;-83
2023/06/14 09:08:43;;;;;;;12.80;11.05;;;;;;;33.25;41.23;101150.41;6194733;23;20004;-84
2023/06/14 09:11:14;;;;;;;12.43;11.05;;;;;;;33.71;40.11;101126.88;6244646;23;20318;-83
2023/06/14 09:13:41;;;;;;;11.98;10.57;;;;;;;34.77;39.09;101154.59;6244531;23;20004;-83
2023/06/14 09:16:07;;;;;;;10.13;9.13;;;;;;;34.01;35.84;101157.78;6219228;23;20012;-84
2023/06/14 09:18:38;;;;;;;10.52;8.10;;;;;;;32.28;37.31;101149.97;6244596;23;20009;-84
2023/06/14 09:21:06;;;;;;;11.45;8.32;;;;;;;32.26;38.70;101143.91;6170552;23;20027;-83
2023/06/14 09:23:52;;;;;;;13.45;9.40;;;;;;;33.40;37.40;101137.22;6246048;22;20019;-83
2023/06/14 09:26:19;;;;;;;11.50;8.95;;;;;;;33.33;36.92;101120.13;6245985;23;20000;-84
2023/06/14 09:28:46;;;;;;;9.60;8.68;;;;;;;32.82;35.73;101139.00;6244820;23;20004;-82
2023/06/14 09:31:19;;;;;;;14.55;9.77;;;;;;;31.27;40.01;101128.66;6222058;23;20012;-82
2023/06/14 09:33:50;;;;;;;15.25;9.80;;;;;;;30.23;42.20;101144.47;6196622;23;20004;-81
2023/06/14 09:36:23;;;;;;;13.98;9.90;;;;;;;30.90;42.05;101138.75;6247022;23;20004;-83
2023/06/14 09:38:56;;;;;;;10.50;9.50;;;;;;;31.10;42.57;101146.72;6196508;23;20031;-83
2023/06/14 09:41:51;;;;;;;14.43;11.13;;;;;;;32.95;38.82;101142.84;6196516;23;20039;-83
2023/06/14 09:44:17;;;;;;;14.60;11.65;;;;;;;34.05;36.97;101152.38;6189852;23;20337;-83
2023/06/14 09:46:43;;;;;;;15.68;11.63;;;;;;;34.19;36.69;101155.03;6221339;23;20012;-83
2023/06/14 09:49:09;;;;;;;13.95;12.15;;;;;;;34.34;36.86;101141.44;6221346;23;20008;-83
2023/06/14 09:51:37;;;;;;;14.82;10.63;;;;;;;33.74;37.27;101160.81;6196498;23;20011;-82
2023/06/14 09:54:06;;;;;;;14.70;10.15;;;;;;;32.57;39.49;101151.56;6221464;23;20066;-82
2023/06/14 09:56:37;;;;;;;12.35;9.95;;;;;;;31.85;38.98;101153.09;6196946;23;20015;-83
2023/06/14 09:59:05;;;;;;;11.43;10.23;;;;;;;30.87;42.32;101137.38;6221295;23;20054;-82
2023/06/14 10:01:31;;;;;;;11.38;9.35;;;;;;;31.90;39.14;101141.03;6221231;23;20008;-82
2023/06/14 10:04:05;;;;;;;10.88;9.60;;;;;;;31.27;40.90;101148.09;6246602;23;20005;-83
2023/06/14 10:06:31;;;;;;;10.68;9.57;;;;;;;30.47;43.10;101152.72;6246334;23;20057;-84
2023/06/14 10:09:01;;;;;;;13.23;10.90;;;;;;;31.38;42.44;101157.09;6221412;23;20007;-84
2023/06/14 10:11:27;;;;;;;12.25;10.93;;;;;;;33.09;39.42;101145.56;6196682;23;20012;-83
2023/06/14 10:13:55;;;;;;;11.68;9.95;;;;;;;34.70;37.37;101153.47;6246307;23;20058;-83
2023/06/14 10:16:27;;;;;;;9.25;8.25;;;;;;;33.98;34.28;101143.66;6221229;23;20066;-83
2023/06/14 10:19:17;;;;;;;9.68;8.77;;;;;;;33.21;35.73;101159.72;6246648;23;20000;-83
2023/06/14 10:22:02;;;;;;;9.40;8.52;;;;;;;31.93;37.59;101160.75;6196332;23;20138;-83
2023/06/14 10:24:32;;;;;;;11.75;9.98;;;;;;;31.21;39.23;101149.31;6221233;23;20421;-83
2023/06/14 10:26:59;;;;;;;11.30;9.38;;;;;;;31.45;39.92;101136.09;6221158;23;20043;-83
2023/06/14 10:29:25;;;;;;;10.88;9.77;;;;;;;33.37;38.77;101158.19;6246437;23;20004;-83
2023/06/14 10:31:56;;;;;;;9.88;8.88;;;;;;;34.36;36.85;101152.28;6221041;23;20008;-82
2023/06/14 10:34:27;;;;;;;9.55;8.60;;;;;;;34.89;33.76;101155.91;6246112;23;20000;-83
2023/06/14 10:37:07;;;;;;;9.90;8.25;;;;;;;33.86;36.67;101155.44;6220992;23;20106;-83
2023/06/14 10:39:41;;;;;;;12.70;9.90;;;;;;;34.47;35.29;101156.38;6195846;23;20011;-83
2023/06/14 10:42:07;;;;;;;9.25;8.35;;;;;;;35.50;34.30;101155.75;6196331;23;20089;-83
2023/06/14 10:44:34;;;;;;;11.68;9.20;;;;;;;36.42;32.49;101164.31;6246130;23;20380;-83
2023/06/14 10:47:01;;;;;;;9.57;8.77;;;;;;;36.70;32.49;101160.97;6246151;23;20500;-83
2023/06/14 10:49:46;;;;;;;9.00;8.05;;;;;;;37.11;30.04;101162.88;6246108;23;20012;-84
2023/06/14 10:52:18;;;;;;;9.27;8.48;;;;;;;36.70;30.96;101156.16;6246017;23;20016;-83
2023/06/14 10:55:18;;;;;;;9.98;9.07;;;;;;;35.88;31.52;101153.78;6246273;23;20017;-83
2023/06/14 10:57:51;;;;;;;9.40;8.50;;;;;;;35.80;30.45;101157.44;6246212;23;20455;-83
2023/06/14 11:00:23;;;;;;;9.60;8.60;;;;;;;35.42;33.10;101152.66;6247259;22;20008;-82
2023/06/14 11:03:16;;;;;;;9.18;8.27;;;;;;;35.78;31.67;101154.19;6196322;23;20151;-84
2023/06/14 11:05:52;;;;;;;9.02;8.13;;;;;;;35.56;33.07;101151.59;6195593;23;20099;-83
2023/06/14 11:08:40;;;;;;;8.88;7.93;;;;;;;35.75;30.82;101160.44;6220682;23;20017;-83
2023/06/14 11:11:07;;;;;;;9.35;7.75;;;;;;;36.12;31.50;101151.50;6195480;23;20012;-83